createdAt,value
2018-02-04T00:02:06.394Z,14.05
2018-02-04T00:04:33.893Z,14.48
2018-02-04T00:07:01.396Z,15.40
2018-02-04T00:09:28.922Z,15.57
2018-02-04T00:11:56.426Z,15.10
2018-02-04T00:14:23.936Z,14.73
2018-02-04T00:16:51.485Z,14.00
2018-02-04T00:19:19.033Z,13.95
2018-02-04T00:21:46.713Z,14.50
2018-02-04T00:24:14.260Z,14.45
2018-02-04T00:26:42.641Z,14.63
2018-02-04T00:29:10.335Z,15.50
2018-02-04T00:31:38.056Z,15.52
2018-02-04T00:34:05.624Z,14.95
2018-02-04T00:36:33.175Z,14.60
2018-02-04T00:39:01.433Z,13.93
2018-02-04T00:41:28.956Z,14.13
2018-02-04T00:43:56.510Z,13.50
2018-02-04T00:46:24.046Z,13.50
2018-02-04T00:48:51.546Z,14.15
2018-02-04T00:51:19.140Z,13.23
2018-02-04T00:53:46.690Z,13.93
2018-02-04T00:56:14.177Z,13.57
2018-02-04T00:58:41.702Z,12.73
2018-02-04T01:01:09.191Z,12.45
2018-02-04T01:03:36.695Z,13.15
2018-02-04T01:06:04.213Z,12.37
2018-02-04T01:08:31.708Z,12.25
2018-02-04T01:10:59.231Z,12.52
2018-02-04T01:13:26.782Z,13.30
2018-02-04T01:15:54.462Z,12.57
2018-02-04T01:18:22.012Z,13.62
2018-02-04T01:20:49.506Z,13.30
2018-02-04T01:23:17.059Z,11.75
2018-02-04T01:25:44.581Z,12.30
2018-02-04T01:28:12.080Z,12.63
2018-02-04T01:30:39.588Z,12.80
2018-02-04T01:33:07.843Z,12.10
2018-02-04T01:35:35.431Z,13.00
2018-02-04T01:38:03.729Z,13.80
2018-02-04T01:40:31.280Z,13.18
2018-02-04T01:42:58.783Z,13.30
2018-02-04T01:45:26.279Z,12.45
2018-02-04T01:48:05.672Z,12.63
2018-02-04T01:50:33.189Z,12.63
2018-02-04T01:53:00.691Z,13.32
2018-02-04T01:55:28.284Z,12.43
2018-02-04T01:57:56.544Z,13.48
2018-02-04T02:00:24.068Z,12.85
2018-02-04T02:02:51.621Z,12.63
2018-02-04T02:05:19.116Z,13.05
2018-02-04T02:07:46.721Z,12.63
2018-02-04T02:10:14.208Z,12.32
2018-02-04T02:12:41.735Z,12.93
2018-02-04T02:15:11.580Z,13.05
2018-02-04T02:17:39.100Z,13.25
2018-02-04T02:20:07.379Z,12.70
2018-02-04T02:22:36.520Z,13.07
2018-02-04T02:25:04.029Z,12.55
2018-02-04T02:27:32.303Z,12.43
2018-02-04T02:30:00.566Z,13.30
2018-02-04T02:32:28.835Z,13.52
2018-02-04T02:34:56.325Z,12.65
2018-02-04T02:37:23.867Z,12.05
2018-02-04T02:39:52.156Z,12.98
2018-02-04T02:42:20.429Z,13.48
2018-02-04T02:44:48.741Z,12.88
2018-02-04T02:47:16.238Z,12.52
2018-02-04T02:49:43.762Z,12.98
2018-02-04T02:52:11.288Z,12.90
2018-02-04T02:54:39.564Z,12.80
2018-02-04T02:57:07.866Z,12.15
2018-02-04T02:59:35.376Z,11.85
2018-02-04T03:02:03.667Z,12.50
2018-02-04T03:04:31.962Z,13.00
2018-02-04T03:06:59.461Z,13.18
2018-02-04T03:09:26.969Z,12.52
2018-02-04T03:11:55.225Z,13.25
2018-02-04T03:14:23.543Z,12.20
2018-02-04T03:16:51.036Z,12.32
2018-02-04T03:19:18.528Z,12.50
2018-02-04T03:21:47.266Z,11.80
2018-02-04T03:24:16.509Z,11.98
2018-02-04T03:29:18.649Z,13.73
2018-02-04T03:31:46.180Z,12.37
2018-02-04T03:34:13.723Z,12.15
2018-02-04T03:36:42.394Z,12.77
2018-02-04T03:39:10.787Z,13.43
2018-02-04T03:41:39.071Z,12.98
2018-02-04T03:44:07.447Z,12.70
2018-02-04T03:46:35.735Z,14.02
2018-02-04T03:49:03.244Z,12.65
2018-02-04T03:51:30.838Z,13.02
2018-02-04T03:53:59.108Z,13.18
2018-02-04T03:56:27.396Z,12.30
2018-02-04T03:58:55.652Z,12.82
2018-02-04T04:01:23.924Z,12.63
2018-02-04T04:03:51.435Z,12.65
2018-02-04T04:06:18.938Z,12.40
2018-02-04T04:08:46.535Z,12.20
2018-02-04T04:11:14.030Z,12.25
2018-02-04T04:13:41.552Z,12.30
2018-02-04T04:16:09.058Z,12.85
2018-02-04T04:18:36.551Z,13.00
2018-02-04T04:21:05.644Z,12.82
2018-02-04T04:23:33.956Z,13.13
2018-02-04T04:26:01.605Z,12.25
2018-02-04T04:28:29.122Z,13.48
2018-02-04T04:30:56.617Z,12.15
2018-02-04T04:33:24.176Z,12.93
2018-02-04T04:35:51.680Z,11.50
2018-02-04T04:38:19.201Z,13.00
2018-02-04T04:40:46.734Z,12.37
2018-02-04T04:43:15.050Z,12.00
2018-02-04T04:45:42.572Z,12.00
2018-02-04T04:48:10.870Z,11.88
2018-02-04T04:50:38.371Z,12.07
2018-02-04T04:53:05.876Z,11.77
2018-02-04T04:55:34.166Z,12.48
2018-02-04T04:58:01.689Z,12.23
2018-02-04T05:00:29.181Z,11.32
2018-02-04T05:02:56.685Z,11.90
2018-02-04T05:05:24.293Z,12.30
2018-02-04T05:07:52.553Z,12.60
2018-02-04T05:10:20.126Z,12.35
2018-02-04T05:12:48.412Z,12.35
2018-02-04T05:15:15.973Z,11.88
2018-02-04T05:17:43.492Z,11.35
2018-02-04T05:20:11.080Z,12.10
2018-02-04T05:22:39.356Z,12.10
2018-02-04T05:25:07.640Z,12.52
2018-02-04T05:27:35.908Z,13.60
2018-02-04T05:30:04.188Z,14.35
2018-02-04T05:32:32.472Z,13.75
2018-02-04T05:35:00.032Z,13.55
2018-02-04T05:37:27.531Z,13.75
2018-02-04T05:39:55.027Z,14.20
2018-02-04T05:42:23.297Z,14.73
2018-02-04T05:44:50.810Z,14.43
2018-02-04T05:47:18.365Z,14.75
2018-02-04T05:49:46.774Z,14.25
2018-02-04T05:52:14.276Z,14.93
2018-02-04T05:54:42.540Z,14.70
2018-02-04T05:57:10.846Z,14.38
2018-02-04T05:59:38.352Z,14.57
2018-02-04T06:02:05.841Z,15.02
2018-02-04T06:04:34.134Z,15.00
2018-02-04T06:07:01.685Z,14.57
2018-02-04T06:09:29.945Z,15.18
2018-02-04T06:11:58.231Z,14.82
2018-02-04T06:14:26.496Z,14.30
2018-02-04T06:16:54.076Z,13.98
2018-02-04T06:19:25.999Z,13.95
2018-02-04T06:21:53.492Z,14.87
2018-02-04T06:24:21.776Z,13.65
2018-02-04T06:26:49.272Z,13.48
2018-02-04T06:29:16.756Z,13.32
2018-02-04T06:31:44.297Z,13.68
2018-02-04T06:34:11.807Z,13.00
2018-02-04T06:36:40.356Z,12.98
2018-02-04T06:39:07.849Z,13.13
2018-02-04T06:41:35.351Z,14.05
2018-02-04T06:44:02.857Z,13.62
2018-02-04T06:46:31.140Z,13.48
2018-02-04T06:48:59.516Z,12.40
2018-02-04T06:51:27.788Z,13.15
2018-02-04T06:53:56.048Z,14.10
2018-02-04T06:56:23.634Z,14.27
2018-02-04T06:58:51.883Z,14.20
2018-02-04T07:01:19.407Z,12.57
2018-02-04T07:03:46.934Z,14.18
2018-02-04T07:06:14.478Z,13.70
2018-02-04T07:08:42.750Z,14.70
2018-02-04T07:11:11.049Z,14.75
2018-02-04T07:13:38.824Z,13.77
2018-02-04T07:16:06.325Z,14.35
2018-02-04T07:18:33.832Z,14.45
2018-02-04T07:21:01.340Z,22.77
2018-02-04T07:23:28.894Z,14.95
2018-02-04T07:25:56.382Z,14.75
2018-02-04T07:28:24.642Z,14.48
2018-02-04T07:30:52.138Z,13.85
2018-02-04T07:33:19.638Z,13.25
2018-02-04T07:35:47.132Z,14.15
2018-02-04T07:38:15.427Z,13.45
2018-02-04T07:40:42.979Z,13.45
2018-02-04T07:43:10.493Z,13.73
2018-02-04T07:45:37.991Z,13.77
2018-02-04T07:48:06.247Z,13.30
2018-02-04T07:50:34.646Z,13.35
2018-02-04T07:53:02.900Z,13.75
2018-02-04T07:55:30.484Z,14.35
2018-02-04T07:57:58.903Z,15.52
2018-02-04T08:00:26.422Z,14.52
2018-02-04T08:02:54.697Z,14.93
2018-02-04T08:05:22.947Z,13.82
2018-02-04T08:07:50.442Z,12.88
2018-02-04T08:10:18.048Z,13.35
2018-02-04T08:12:45.568Z,13.68
2018-02-04T08:15:13.084Z,12.93
2018-02-04T08:17:40.682Z,12.90
2018-02-04T08:20:08.948Z,12.20
2018-02-04T08:22:37.228Z,12.37
2018-02-04T08:25:04.749Z,13.27
2018-02-04T08:27:32.261Z,12.68
2018-02-04T08:29:59.761Z,13.25
2018-02-04T08:32:27.288Z,12.95
2018-02-04T08:34:54.779Z,12.93
2018-02-04T08:37:22.281Z,12.65
2018-02-04T08:39:50.559Z,12.40
2018-02-04T08:42:18.808Z,12.95
2018-02-04T08:44:46.324Z,13.65
2018-02-04T08:47:13.811Z,13.07
2018-02-04T08:49:41.296Z,13.48
2018-02-04T08:52:09.580Z,14.00
2018-02-04T08:54:37.838Z,13.52
2018-02-04T08:57:05.322Z,13.57
2018-02-04T08:59:32.841Z,12.77
2018-02-04T09:02:00.333Z,14.13
2018-02-04T09:04:28.585Z,13.52
2018-02-04T09:06:56.171Z,13.65
2018-02-04T09:09:23.674Z,14.07
2018-02-04T09:11:51.168Z,13.00
2018-02-04T09:14:19.441Z,13.27
2018-02-04T09:16:46.988Z,12.85
2018-02-04T09:19:15.312Z,13.30
2018-02-04T09:21:43.568Z,13.48
2018-02-04T09:24:11.833Z,13.70
2018-02-04T09:26:39.460Z,12.37
2018-02-04T09:29:06.952Z,11.93
2018-02-04T09:31:34.539Z,12.33
2018-02-04T09:34:02.103Z,12.43
2018-02-04T09:36:29.588Z,13.17
2018-02-04T09:38:57.085Z,13.40
2018-02-04T09:41:27.936Z,13.73
2018-02-04T09:43:56.211Z,13.90
2018-02-04T09:46:25.558Z,12.90
2018-02-04T09:48:53.056Z,13.70
2018-02-04T09:51:22.458Z,13.30
2018-02-04T09:53:49.951Z,13.70
2018-02-04T09:56:17.467Z,13.70
2018-02-04T09:58:46.511Z,12.90
2018-02-04T10:01:14.772Z,12.83
2018-02-04T10:03:43.051Z,14.23
2018-02-04T10:06:11.316Z,13.13
2018-02-04T10:08:39.593Z,12.10
2018-02-04T10:11:07.854Z,13.70
2018-02-04T10:13:35.355Z,13.27
2018-02-04T10:16:02.857Z,12.50
2018-02-04T10:18:30.412Z,12.20
2018-02-04T10:20:58.028Z,13.07
2018-02-04T10:23:25.611Z,12.87
2018-02-04T10:25:53.110Z,12.40
2018-02-04T10:28:20.608Z,13.50
2018-02-04T10:30:48.114Z,13.03
2018-02-04T10:33:15.637Z,13.70
2018-02-04T10:35:43.129Z,13.60
2018-02-04T10:38:10.621Z,13.17
2018-02-04T10:40:38.888Z,12.70
2018-02-04T10:43:07.176Z,13.63
2018-02-04T10:45:35.456Z,12.60
2018-02-04T10:48:02.953Z,12.23
2018-02-04T10:50:30.442Z,12.20
2018-02-04T10:52:57.953Z,12.13
2018-02-04T10:55:25.447Z,12.67
2018-02-04T10:57:53.064Z,13.93
2018-02-04T11:00:20.557Z,12.43
2018-02-04T11:02:48.077Z,11.10
2018-02-04T11:05:15.576Z,12.70
2018-02-04T11:07:43.060Z,11.73
2018-02-04T11:10:10.663Z,11.10
2018-02-04T11:12:38.153Z,11.07
2018-02-04T11:15:05.674Z,11.43
2018-02-04T11:17:33.272Z,11.43
2018-02-04T11:20:00.817Z,11.57
2018-02-04T11:22:28.384Z,11.23
2018-02-04T11:24:55.938Z,11.17
2018-02-04T11:27:23.486Z,11.07
2018-02-04T11:29:51.073Z,14.90
2018-02-04T11:32:21.194Z,12.77
2018-02-04T11:34:49.765Z,13.30
2018-02-04T11:37:17.291Z,11.50
2018-02-04T11:39:45.781Z,11.40
2018-02-04T11:42:14.184Z,11.03
2018-02-04T11:44:41.738Z,11.07
2018-02-04T11:47:09.297Z,13.20
2018-02-04T11:49:36.859Z,11.07
2018-02-04T11:52:04.412Z,10.50
2018-02-04T11:54:31.955Z,12.40
2018-02-04T11:56:59.557Z,11.10
2018-02-04T11:59:27.963Z,10.20
2018-02-04T12:01:57.375Z,11.17
2018-02-04T12:04:25.804Z,11.10
2018-02-04T12:06:53.359Z,10.90
2018-02-04T12:09:20.959Z,10.60
2018-02-04T12:11:49.397Z,9.97
2018-02-04T12:14:16.975Z,9.90
2018-02-04T12:16:45.043Z,9.90
2018-02-04T12:19:12.587Z,9.63
2018-02-04T12:21:40.122Z,10.10
2018-02-04T12:24:07.713Z,9.10
2018-02-04T12:26:35.383Z,9.43
2018-02-04T12:29:02.962Z,9.50
2018-02-04T12:31:30.512Z,9.90
2018-02-04T12:33:58.344Z,9.40
2018-02-04T12:36:26.015Z,9.40
2018-02-04T12:38:53.561Z,10.00
2018-02-04T12:41:21.110Z,10.00
2018-02-04T12:43:49.397Z,9.27
2018-02-04T12:46:16.924Z,9.10
2018-02-04T12:48:45.466Z,9.07
2018-02-04T12:51:13.834Z,8.17
2018-02-04T12:53:41.428Z,7.90
2018-02-04T12:56:09.028Z,8.00
2018-02-04T12:58:36.508Z,8.17
2018-02-04T13:01:04.085Z,8.53
2018-02-04T13:03:31.656Z,8.43
2018-02-04T13:05:59.317Z,7.40
2018-02-04T13:08:26.865Z,8.17
2018-02-04T13:10:58.066Z,8.27
2018-02-04T13:13:25.626Z,7.30
2018-02-04T13:15:53.166Z,7.13
2018-02-04T13:18:21.503Z,6.63
2018-02-04T13:20:49.039Z,8.70
2018-02-04T13:23:16.713Z,7.43
2018-02-04T13:25:44.318Z,7.33
2018-02-04T13:28:11.861Z,12.97
2018-02-04T13:30:41.362Z,10.90
2018-02-04T13:33:08.905Z,6.63
2018-02-04T13:35:36.450Z,6.20
2018-02-04T13:38:04.012Z,6.43
2018-02-04T13:40:31.554Z,6.80
2018-02-04T13:42:59.884Z,6.07
2018-02-04T13:45:27.492Z,6.37
2018-02-04T13:47:55.029Z,6.20
2018-02-04T13:50:23.539Z,6.37
2018-02-04T13:52:51.043Z,6.13
2018-02-04T13:55:18.548Z,6.30
2018-02-04T13:57:46.800Z,6.43
2018-02-04T14:00:14.392Z,6.40
2018-02-04T14:02:42.000Z,6.10
2018-02-04T14:05:09.487Z,6.10
2018-02-04T14:07:37.754Z,6.50
2018-02-04T14:10:05.245Z,5.63
2018-02-04T14:12:32.809Z,6.53
2018-02-04T14:15:00.312Z,6.53
2018-02-04T14:17:27.849Z,6.10
2018-02-04T14:19:55.382Z,6.57
2018-02-04T14:22:22.881Z,6.30
2018-02-04T14:24:50.366Z,6.40
2018-02-04T14:27:17.872Z,5.87
2018-02-04T14:29:45.390Z,5.67
2018-02-04T14:32:12.899Z,5.93
2018-02-04T14:34:40.475Z,5.80
2018-02-04T14:37:08.000Z,6.10
2018-02-04T14:39:35.548Z,5.53
2018-02-04T14:42:03.044Z,5.60
2018-02-04T14:44:30.567Z,5.47
2018-02-04T14:46:58.064Z,5.63
2018-02-04T14:49:25.578Z,5.80
2018-02-04T14:51:53.843Z,5.20
2018-02-04T14:54:22.092Z,5.27
2018-02-04T14:56:49.689Z,6.13
2018-02-04T14:59:17.946Z,6.47
2018-02-04T15:01:45.525Z,5.77
2018-02-04T15:04:13.800Z,5.73
2018-02-04T15:06:42.044Z,5.70
2018-02-04T15:09:09.533Z,6.20
2018-02-04T15:11:37.901Z,6.27
2018-02-04T15:14:06.191Z,6.50
2018-02-04T15:16:34.462Z,6.57
2018-02-04T15:19:02.784Z,6.80
2018-02-04T15:21:30.271Z,6.27
2018-02-04T15:23:57.785Z,6.97
2018-02-04T15:26:25.285Z,6.47
2018-02-04T15:28:52.776Z,6.77
2018-02-04T15:31:21.049Z,6.77
2018-02-04T15:33:49.313Z,6.67
2018-02-04T15:36:16.889Z,6.97
2018-02-04T15:38:45.173Z,6.77
2018-02-04T15:41:12.725Z,6.40
2018-02-04T15:43:40.988Z,6.90
2018-02-04T15:46:08.484Z,6.97
2018-02-04T15:48:35.992Z,7.13
2018-02-04T15:51:03.480Z,6.50
2018-02-04T15:53:31.058Z,6.30
2018-02-04T15:55:58.604Z,6.03
2018-02-04T15:58:26.094Z,5.73
2018-02-04T16:00:53.611Z,6.07
2018-02-04T16:03:21.880Z,5.80
2018-02-04T16:05:50.160Z,6.10
2018-02-04T16:08:18.432Z,6.77
2018-02-04T16:10:46.693Z,6.90
2018-02-04T16:13:14.327Z,6.97
2018-02-04T16:15:41.849Z,8.07
2018-02-04T16:18:09.378Z,8.07
2018-02-04T16:20:37.911Z,7.03
2018-02-04T16:23:05.400Z,7.63
2018-02-04T16:25:32.948Z,7.30
2018-02-04T16:28:00.531Z,6.50
2018-02-04T16:30:28.867Z,6.78
2018-02-04T16:32:56.570Z,6.97
2018-02-04T16:35:24.060Z,6.75
2018-02-04T16:37:52.424Z,6.78
2018-02-04T16:40:20.829Z,7.35
2018-02-04T16:42:48.478Z,7.47
2018-02-04T16:45:16.036Z,7.97
2018-02-04T16:47:44.310Z,8.63
2018-02-04T16:50:12.584Z,7.90
2018-02-04T16:52:40.893Z,7.40
2018-02-04T16:55:08.434Z,6.93
2018-02-04T16:57:35.988Z,7.90
2018-02-04T17:00:04.374Z,8.85
2018-02-04T17:02:31.980Z,9.57
2018-02-04T17:04:59.485Z,8.77
2018-02-04T17:07:27.763Z,9.82
2018-02-04T17:09:55.260Z,8.43
2018-02-04T17:12:22.776Z,8.57
2018-02-04T17:14:51.051Z,8.40
2018-02-04T17:17:19.381Z,8.90
2018-02-04T17:19:46.899Z,8.60
2018-02-04T17:22:15.145Z,9.27
2018-02-04T17:24:50.888Z,10.98
2018-02-04T17:27:18.397Z,10.68
2018-02-04T17:29:45.918Z,11.40
2018-02-04T17:32:15.477Z,11.50
2018-02-04T17:34:43.007Z,11.88
2018-02-04T17:37:10.602Z,11.73
2018-02-04T17:39:38.875Z,11.57
2018-02-04T17:42:06.482Z,11.90
2018-02-04T17:44:34.012Z,11.40
2018-02-04T17:47:01.533Z,12.55
2018-02-04T17:49:29.038Z,12.05
2018-02-04T17:51:56.536Z,12.32
2018-02-04T17:54:24.048Z,13.32
2018-02-04T17:56:51.560Z,13.50
2018-02-04T17:59:19.064Z,14.95
2018-02-04T18:01:47.524Z,16.40
2018-02-04T18:04:15.094Z,15.35
2018-02-04T18:06:42.652Z,14.07
2018-02-04T18:09:10.188Z,13.50
2018-02-04T18:11:37.702Z,11.40
2018-02-04T18:14:05.210Z,10.02
2018-02-04T18:16:32.993Z,9.98
2018-02-04T18:19:00.522Z,10.02
2018-02-04T18:21:28.081Z,10.95
2018-02-04T18:23:55.649Z,11.12
2018-02-04T18:26:23.167Z,11.35
2018-02-04T18:28:50.669Z,11.63
2018-02-04T18:31:18.158Z,11.35
2018-02-04T18:33:45.844Z,10.63
2018-02-04T18:36:14.139Z,11.30
2018-02-04T18:38:42.432Z,10.85
2018-02-04T18:41:13.717Z,10.98
2018-02-04T18:43:41.216Z,11.43
2018-02-04T18:46:09.485Z,11.55
2018-02-04T18:48:38.066Z,11.35
2018-02-04T18:51:06.531Z,10.25
2018-02-04T18:53:35.912Z,11.10
2018-02-04T18:56:03.557Z,10.60
2018-02-04T18:58:31.066Z,10.35
2018-02-04T19:00:59.739Z,10.57
2018-02-04T19:03:27.811Z,9.75
2018-02-04T19:05:56.708Z,10.05
2018-02-04T19:08:24.212Z,9.75
2018-02-04T19:10:51.714Z,10.70
2018-02-04T19:13:19.215Z,9.98
2018-02-04T19:15:46.786Z,10.13
2018-02-04T19:18:16.271Z,9.45
2018-02-04T19:20:44.749Z,10.45
2018-02-04T19:23:13.044Z,10.35
2018-02-04T19:25:40.583Z,10.57
2018-02-04T19:28:08.880Z,10.07
2018-02-04T19:30:37.479Z,10.23
2018-02-04T19:33:05.852Z,11.48
2018-02-04T19:35:33.424Z,10.70
2018-02-04T19:38:02.154Z,10.82
2018-02-04T19:40:30.471Z,10.98
2018-02-04T19:42:57.989Z,11.05
2018-02-04T19:45:30.148Z,11.12
2018-02-04T19:47:57.712Z,11.73
2018-02-04T19:50:25.187Z,13.90
2018-02-04T19:52:52.699Z,11.70
2018-02-04T19:55:20.200Z,11.90
2018-02-04T19:57:47.809Z,11.50
2018-02-04T20:00:15.305Z,11.43
2018-02-04T20:02:42.828Z,11.70
2018-02-04T20:05:10.335Z,11.43
2018-02-04T20:07:38.617Z,11.88
2018-02-04T20:10:06.923Z,12.25
2018-02-04T20:12:34.648Z,12.27
2018-02-04T20:15:02.249Z,12.02
2018-02-04T20:17:29.759Z,12.57
2018-02-04T20:19:57.288Z,13.07
2018-02-04T20:22:24.781Z,13.23
2018-02-04T20:24:52.386Z,14.20
2018-02-04T20:27:19.904Z,14.73
2018-02-04T20:29:48.162Z,13.60
2018-02-04T20:32:28.168Z,14.25
2018-02-04T20:34:55.668Z,13.18
2018-02-04T20:37:23.190Z,14.48
2018-02-04T20:39:50.696Z,13.85
2018-02-04T20:42:18.295Z,14.05
2018-02-04T20:44:46.593Z,14.82
2018-02-04T20:47:14.220Z,17.02
2018-02-04T20:49:42.481Z,16.27
2018-02-04T20:52:10.034Z,16.50
2018-02-04T20:54:38.492Z,15.77
2018-02-04T20:57:05.993Z,15.03
2018-02-04T20:59:34.306Z,15.32
2018-02-04T21:02:01.850Z,15.45
2018-02-04T21:04:29.340Z,15.80
2018-02-04T21:06:56.848Z,17.12
2018-02-04T21:09:25.148Z,16.75
2018-02-04T21:11:52.660Z,17.12
2018-02-04T21:14:20.268Z,16.15
2018-02-04T21:16:47.867Z,16.12
2018-02-04T21:19:15.380Z,16.33
2018-02-04T21:21:42.942Z,15.82
2018-02-04T21:24:10.439Z,17.17
2018-02-04T21:26:37.938Z,16.77
2018-02-04T21:29:06.210Z,17.92
2018-02-04T21:31:33.709Z,18.00
2018-02-04T21:34:01.256Z,17.98
2018-02-04T21:36:28.745Z,18.90
2018-02-04T21:38:56.245Z,18.65
2018-02-04T21:41:24.533Z,19.77
2018-02-04T21:43:52.796Z,20.00
2018-02-04T21:46:20.384Z,19.85
2018-02-04T21:48:48.614Z,20.95
2018-02-04T21:51:16.227Z,20.17
2018-02-04T21:53:43.730Z,21.20
2018-02-04T21:56:11.358Z,19.10
2018-02-04T21:58:38.923Z,20.80
2018-02-04T22:01:14.913Z,20.10
2018-02-04T22:06:24.532Z,20.40
2018-02-04T22:08:54.224Z,20.62
2018-02-04T22:11:31.496Z,20.75
2018-02-04T22:13:59.015Z,21.27
2018-02-04T22:16:26.651Z,20.42
2018-02-04T22:18:54.155Z,21.40
2018-02-04T22:21:21.655Z,21.52
2018-02-04T22:23:49.163Z,21.33
2018-02-04T22:26:16.712Z,22.02
2018-02-04T22:28:44.227Z,21.98
2018-02-04T22:31:11.729Z,22.02
2018-02-04T22:33:39.296Z,21.92
2018-02-04T22:36:06.806Z,20.88
2018-02-04T22:38:34.672Z,22.45
2018-02-04T22:41:02.897Z,22.30
2018-02-04T22:43:32.777Z,21.92
2018-02-04T22:46:00.396Z,21.27
2018-02-04T22:48:27.901Z,22.45
2018-02-04T22:50:55.443Z,23.92
2018-02-04T22:53:22.990Z,22.50
2018-02-04T22:55:51.381Z,22.23
2018-02-04T22:58:18.883Z,22.25
2018-02-04T23:00:46.386Z,22.67
2018-02-04T23:03:14.663Z,22.23
2018-02-04T23:05:43.016Z,23.67
2018-02-04T23:08:10.537Z,22.92
2018-02-04T23:10:38.066Z,22.67
2018-02-04T23:13:06.439Z,23.67
2018-02-04T23:15:34.715Z,23.52
2018-02-04T23:18:03.121Z,24.67
2018-02-04T23:20:30.643Z,24.95
2018-02-04T23:22:58.225Z,24.25
2018-02-04T23:25:25.739Z,26.48
2018-02-04T23:27:53.225Z,27.58
2018-02-04T23:30:20.764Z,26.85
2018-02-04T23:32:48.270Z,26.20
2018-02-04T23:35:15.776Z,25.58
2018-02-04T23:37:43.368Z,26.62
2018-02-04T23:40:11.645Z,26.67
2018-02-04T23:42:39.933Z,26.37
2018-02-04T23:45:07.449Z,26.15
2018-02-04T23:47:35.027Z,26.42
2018-02-04T23:50:03.316Z,26.45
2018-02-04T23:52:31.608Z,24.75
2018-02-04T23:54:59.210Z,26.08
2018-02-04T23:57:26.725Z,25.73
2018-02-04T23:59:54.277Z,24.98
